createdAt,value
2018-06-28T00:00:09.975Z,513.77
2018-06-28T00:02:38.554Z,510.37
2018-06-28T00:05:07.190Z,542.30
2018-06-28T00:07:35.817Z,553.13
2018-06-28T00:10:04.434Z,550.43
2018-06-28T00:12:32.978Z,558.43
2018-06-28T00:15:01.527Z,511.73
2018-06-28T00:17:30.018Z,541.90
2018-06-28T00:19:58.549Z,502.43
2018-06-28T00:22:27.107Z,506.47
2018-06-28T00:24:55.630Z,500.37
2018-06-28T00:27:24.138Z,496.63
2018-06-28T00:29:52.695Z,517.53
2018-06-28T00:32:21.200Z,536.13
2018-06-28T00:34:49.698Z,555.50
2018-06-28T00:37:18.239Z,578.43
2018-06-28T00:39:46.808Z,599.23
2018-06-28T00:42:15.310Z,621.83
2018-06-28T00:44:43.875Z,619.87
2018-06-28T00:47:12.425Z,613.17
2018-06-28T00:49:40.961Z,615.93
2018-06-28T00:52:09.471Z,591.20
2018-06-28T00:54:38.014Z,603.77
2018-06-28T00:57:06.528Z,600.37
2018-06-28T00:59:35.110Z,584.80
2018-06-28T01:02:03.686Z,606.50
2018-06-28T01:04:32.238Z,600.73
2018-06-28T01:07:00.750Z,600.87
2018-06-28T01:09:29.328Z,612.77
2018-06-28T01:11:57.920Z,601.83
2018-06-28T01:14:26.453Z,593.07
2018-06-28T01:16:55.013Z,592.57
2018-06-28T01:19:23.531Z,608.13
2018-06-28T01:21:52.071Z,561.77
2018-06-28T01:24:20.579Z,570.73
2018-06-28T01:26:49.134Z,567.77
2018-06-28T01:29:17.643Z,570.83
2018-06-28T01:31:46.154Z,588.63
2018-06-28T01:34:14.726Z,561.17
2018-06-28T01:36:43.242Z,545.63
2018-06-28T01:39:12.461Z,550.23
2018-06-28T01:41:52.816Z,539.97
2018-06-28T01:44:21.366Z,538.47
2018-06-28T01:46:49.942Z,546.57
2018-06-28T01:49:18.429Z,537.67
2018-06-28T01:51:46.933Z,537.00
2018-06-28T01:54:15.483Z,556.93
2018-06-28T01:56:43.664Z,563.83
2018-06-28T01:59:12.205Z,556.70
2018-06-28T02:01:40.765Z,594.17
2018-06-28T02:04:09.241Z,584.00
2018-06-28T02:06:37.777Z,609.50
2018-06-28T02:09:08.341Z,588.53
2018-06-28T02:11:36.921Z,574.97
2018-06-28T02:14:05.522Z,565.47
2018-06-28T02:16:34.077Z,564.57
2018-06-28T02:19:02.582Z,535.57
2018-06-28T02:21:31.113Z,530.40
2018-06-28T02:23:59.692Z,525.00
2018-06-28T02:26:28.218Z,462.17
2018-06-28T02:28:56.753Z,459.40
2018-06-28T02:31:25.266Z,464.30
2018-06-28T02:33:53.780Z,453.63
2018-06-28T02:36:22.335Z,412.97
2018-06-28T02:38:50.834Z,394.03
2018-06-28T02:41:19.382Z,392.07
2018-06-28T02:43:47.918Z,388.60
2018-06-28T02:46:16.470Z,393.83
2018-06-28T02:48:44.977Z,366.57
2018-06-28T02:51:13.558Z,386.70
2018-06-28T02:53:42.071Z,345.90
2018-06-28T02:56:10.565Z,368.23
2018-06-28T02:58:39.098Z,329.50
2018-06-28T03:01:07.739Z,345.17
2018-06-28T03:03:36.275Z,295.90
2018-06-28T03:06:04.785Z,316.70
2018-06-28T03:08:33.319Z,337.97
2018-06-28T03:11:01.875Z,341.27
2018-06-28T03:13:30.415Z,347.77
2018-06-28T03:15:59.022Z,348.83
2018-06-28T03:18:27.559Z,355.53
2018-06-28T03:20:56.055Z,392.73
2018-06-28T03:23:24.617Z,380.87
2018-06-28T03:25:53.133Z,383.67
2018-06-28T03:28:21.666Z,396.63
2018-06-28T03:30:50.241Z,408.93
2018-06-28T03:33:18.845Z,437.77
2018-06-28T03:35:47.359Z,407.53
2018-06-28T03:38:15.885Z,430.97
2018-06-28T03:40:44.435Z,412.10
2018-06-28T03:43:12.921Z,445.60
2018-06-28T03:45:41.458Z,465.80
2018-06-28T03:48:09.783Z,429.03
2018-06-28T03:50:38.340Z,430.40
2018-06-28T03:53:06.926Z,421.13
2018-06-28T03:55:35.406Z,394.30
2018-06-28T03:58:04.010Z,402.00
2018-06-28T04:00:32.551Z,405.60
2018-06-28T04:03:01.122Z,416.13
2018-06-28T04:05:29.651Z,443.77
2018-06-28T04:07:58.202Z,431.60
2018-06-28T04:10:26.724Z,446.97
2018-06-28T04:12:55.247Z,461.90
2018-06-28T04:15:23.822Z,477.63
2018-06-28T04:17:52.390Z,516.27
2018-06-28T04:20:21.194Z,493.37
2018-06-28T04:22:49.725Z,498.70
2018-06-28T04:25:18.214Z,507.60
2018-06-28T04:27:46.745Z,510.50
2018-06-28T04:30:15.294Z,553.13
2018-06-28T04:32:43.860Z,565.10
2018-06-28T04:35:12.393Z,555.50
2018-06-28T04:37:40.930Z,561.67
2018-06-28T04:40:09.465Z,603.50
2018-06-28T04:42:38.089Z,595.77
2018-06-28T04:45:06.778Z,594.90
2018-06-28T04:47:35.314Z,588.37
2018-06-28T04:50:03.903Z,600.73
2018-06-28T04:52:32.440Z,579.57
2018-06-28T04:55:01.222Z,584.93
2018-06-28T04:57:29.790Z,593.30
2018-06-28T04:59:58.285Z,564.30
2018-06-28T05:02:26.809Z,566.50
2018-06-28T05:04:55.447Z,572.37
2018-06-28T05:07:23.668Z,601.63
2018-06-28T05:09:52.645Z,612.80
2018-06-28T05:12:21.222Z,588.40
2018-06-28T05:14:49.780Z,606.77
2018-06-28T05:17:18.353Z,490.47
2018-06-28T05:19:46.911Z,436.73
2018-06-28T05:22:15.453Z,416.37
2018-06-28T05:24:43.985Z,357.70
2018-06-28T05:27:12.485Z,376.33
2018-06-28T05:29:41.029Z,357.27
2018-06-28T05:32:09.545Z,375.70
2018-06-28T05:34:38.149Z,339.40
2018-06-28T05:37:06.380Z,307.57
2018-06-28T05:39:35.156Z,317.40
2018-06-28T05:42:03.665Z,318.60
2018-06-28T05:44:32.161Z,242.80
2018-06-28T05:47:00.766Z,221.90
2018-06-28T05:49:29.292Z,198.43
2018-06-28T05:51:57.790Z,178.80
2018-06-28T05:54:26.317Z,189.47
2018-06-28T05:56:54.869Z,270.30
2018-06-28T05:59:23.419Z,294.10
2018-06-28T06:01:52.575Z,296.03
2018-06-28T06:04:21.118Z,320.93
2018-06-28T06:06:49.767Z,304.63
2018-06-28T06:09:18.476Z,188.00
2018-06-28T06:11:46.998Z,171.87
2018-06-28T06:14:15.578Z,159.17
2018-06-28T06:16:44.144Z,166.63
2018-06-28T06:19:12.718Z,149.03
2018-06-28T06:21:41.323Z,170.57
2018-06-28T06:24:09.907Z,184.80
2018-06-28T06:26:38.499Z,310.77
2018-06-28T06:29:07.108Z,307.90
2018-06-28T06:31:35.306Z,391.17
2018-06-28T06:34:03.947Z,368.17
2018-06-28T06:36:32.510Z,366.57
2018-06-28T06:39:01.043Z,365.83
2018-06-28T06:41:29.649Z,393.03
2018-06-28T06:43:58.213Z,383.20
2018-06-28T06:46:26.856Z,363.73
2018-06-28T06:48:55.774Z,342.60
2018-06-28T06:51:24.373Z,353.50
2018-06-28T06:53:53.109Z,352.97
2018-06-28T06:56:21.668Z,386.07
2018-06-28T06:58:50.222Z,373.83
2018-06-28T07:01:18.793Z,345.80
2018-06-28T07:03:47.377Z,369.53
2018-06-28T07:06:18.988Z,394.70
2018-06-28T07:08:47.928Z,379.73
2018-06-28T07:11:16.151Z,418.63
2018-06-28T07:13:44.768Z,418.73
2018-06-28T07:16:13.307Z,413.67
2018-06-28T07:18:41.832Z,386.43
2018-06-28T07:21:10.488Z,360.77
2018-06-28T07:23:39.007Z,367.80
2018-06-28T07:26:07.637Z,371.67
2018-06-28T07:28:36.226Z,384.43
2018-06-28T07:31:04.798Z,310.17
2018-06-28T07:33:33.486Z,358.33
2018-06-28T07:36:02.111Z,320.70
2018-06-28T07:38:30.986Z,340.00
2018-06-28T07:40:59.547Z,340.83
2018-06-28T07:43:28.157Z,285.90
2018-06-28T07:45:56.700Z,321.07
2018-06-28T07:48:24.945Z,349.97
2018-06-28T07:50:53.605Z,372.63
2018-06-28T07:53:22.117Z,401.33
2018-06-28T07:55:50.839Z,407.27
2018-06-28T07:58:19.057Z,384.67
2018-06-28T08:00:47.601Z,307.67
2018-06-28T08:03:16.179Z,267.13
2018-06-28T08:05:44.764Z,270.97
2018-06-28T08:08:13.351Z,210.10
2018-06-28T08:10:41.918Z,192.43
2018-06-28T08:13:10.453Z,210.43
2018-06-28T08:15:39.734Z,208.30
2018-06-28T08:18:08.288Z,220.90
2018-06-28T08:20:36.862Z,336.10
2018-06-28T08:23:05.443Z,268.67
2018-06-28T08:25:33.961Z,430.77
2018-06-28T08:28:02.498Z,350.30
2018-06-28T08:30:31.017Z,353.20
2018-06-28T08:32:59.541Z,296.60
2018-06-28T08:35:28.074Z,261.53
2018-06-28T08:37:56.641Z,146.00
2018-06-28T08:40:25.201Z,267.50
2018-06-28T08:42:53.764Z,174.80
2018-06-28T08:45:22.295Z,76.63
2018-06-28T08:47:50.831Z,97.77
2018-06-28T08:50:19.335Z,73.13
2018-06-28T08:52:47.875Z,50.83
2018-06-28T08:55:16.390Z,91.70
2018-06-28T08:57:44.943Z,84.03
2018-06-28T09:00:13.466Z,51.60
2018-06-28T09:02:41.986Z,39.20
2018-06-28T09:05:10.538Z,50.63
2018-06-28T09:07:39.088Z,39.13
2018-06-28T09:10:07.591Z,45.23
2018-06-28T09:12:36.078Z,54.60
2018-06-28T09:15:04.661Z,53.43
2018-06-28T09:17:33.145Z,59.63
2018-06-28T09:20:01.702Z,68.33
2018-06-28T09:22:30.261Z,48.97
2018-06-28T09:24:58.769Z,103.37
2018-06-28T09:27:27.281Z,174.93
2018-06-28T09:29:55.839Z,221.10
2018-06-28T09:32:24.563Z,324.23
2018-06-28T09:34:53.057Z,298.20
2018-06-28T09:37:21.629Z,201.87
2018-06-28T09:39:50.196Z,379.23
2018-06-28T09:42:18.741Z,254.67
2018-06-28T09:44:47.269Z,45.67
2018-06-28T09:47:15.771Z,40.03
2018-06-28T09:49:44.311Z,33.97
2018-06-28T09:52:12.844Z,36.87
2018-06-28T09:54:41.443Z,24.17
2018-06-28T09:57:10.039Z,19.60
2018-06-28T09:59:38.448Z,19.47
2018-06-28T10:02:07.013Z,24.73
2018-06-28T10:04:35.563Z,27.70
2018-06-28T10:07:04.207Z,28.97
2018-06-28T10:09:32.786Z,36.43
2018-06-28T10:12:02.610Z,32.83
2018-06-28T10:14:38.455Z,29.07
2018-06-28T10:17:10.023Z,50.03
2018-06-28T10:19:46.078Z,67.27
2018-06-28T10:22:17.770Z,33.53
2018-06-28T10:24:46.328Z,68.27
2018-06-28T10:27:14.844Z,31.60
2018-06-28T10:29:43.418Z,75.10
2018-06-28T10:32:11.925Z,41.13
2018-06-28T10:34:40.132Z,16.07
2018-06-28T10:37:08.631Z,91.63
2018-06-28T10:39:37.146Z,74.00
2018-06-28T10:42:05.690Z,45.07
2018-06-28T10:44:34.246Z,125.20
2018-06-28T10:47:02.770Z,105.03
2018-06-28T10:49:31.330Z,107.40
2018-06-28T10:51:59.828Z,12.30
2018-06-28T10:54:28.384Z,14.00
2018-06-28T10:56:56.921Z,15.13
2018-06-28T10:59:25.478Z,14.17
2018-06-28T11:01:54.042Z,14.70
2018-06-28T11:04:22.544Z,13.87
2018-06-28T11:06:51.125Z,11.60
2018-06-28T11:09:19.623Z,12.00
2018-06-28T11:11:48.161Z,11.47
2018-06-28T11:14:16.662Z,10.40
2018-06-28T11:16:45.174Z,11.43
2018-06-28T11:19:13.778Z,13.50
2018-06-28T11:21:42.322Z,17.97
2018-06-28T11:24:10.831Z,14.00
2018-06-28T11:26:39.356Z,8.50
2018-06-28T11:29:07.855Z,7.47
2018-06-28T11:31:36.321Z,7.50
2018-06-28T11:34:05.165Z,12.50
2018-06-28T11:36:33.694Z,11.17
2018-06-28T11:39:02.245Z,7.67
2018-06-28T11:41:30.713Z,7.70
2018-06-28T11:43:59.235Z,7.00
2018-06-28T11:46:27.456Z,9.20
2018-06-28T11:48:56.041Z,9.07
2018-06-28T11:51:24.531Z,8.70
2018-06-28T11:53:53.088Z,8.80
2018-06-28T11:56:21.647Z,9.10
2018-06-28T11:58:50.148Z,8.73
2018-06-28T12:01:18.702Z,7.83
2018-06-28T12:03:47.314Z,8.10
2018-06-28T12:06:15.967Z,7.43
2018-06-28T12:08:44.465Z,8.07
2018-06-28T12:11:12.989Z,6.97
2018-06-28T12:13:41.539Z,7.57
2018-06-28T12:16:10.225Z,13.57
2018-06-28T12:18:38.737Z,40.30
2018-06-28T12:21:07.302Z,41.80
2018-06-28T12:23:35.872Z,25.43
2018-06-28T12:26:04.459Z,12.13
2018-06-28T12:28:32.957Z,15.83
2018-06-28T12:31:03.003Z,9.60
2018-06-28T12:33:31.533Z,12.33
2018-06-28T12:36:01.010Z,16.53
2018-06-28T12:38:34.853Z,47.03
2018-06-28T12:41:08.372Z,57.83
2018-06-28T12:43:40.155Z,66.73
2018-06-28T12:46:12.297Z,64.43
2018-06-28T12:48:49.374Z,66.03
2018-06-28T12:51:27.076Z,52.77
2018-06-28T12:53:55.686Z,58.40
2018-06-28T12:56:30.482Z,44.67
2018-06-28T12:59:00.537Z,33.80
2018-06-28T13:01:29.574Z,32.63
2018-06-28T13:03:58.312Z,32.30
2018-06-28T13:06:26.905Z,34.33
2018-06-28T13:08:55.992Z,43.03
2018-06-28T13:11:24.870Z,54.57
2018-06-28T13:13:53.644Z,76.67
2018-06-28T13:16:23.220Z,74.77
2018-06-28T13:18:51.785Z,89.63
2018-06-28T13:21:20.299Z,93.27
2018-06-28T13:23:48.850Z,116.33
2018-06-28T13:26:17.986Z,131.23
2018-06-28T13:28:46.834Z,136.50
2018-06-28T13:31:15.520Z,163.07
2018-06-28T13:33:44.095Z,179.63
2018-06-28T13:36:12.665Z,184.43
2018-06-28T13:38:41.286Z,206.90
2018-06-28T13:41:10.088Z,206.13
2018-06-28T13:43:38.536Z,206.97
2018-06-28T13:46:07.086Z,199.93
2018-06-28T13:48:35.657Z,188.30
2018-06-28T13:51:03.953Z,177.20
2018-06-28T13:53:32.491Z,180.00
2018-06-28T13:56:02.221Z,177.77
2018-06-28T13:58:32.307Z,167.13
2018-06-28T14:01:02.325Z,158.10
2018-06-28T14:03:32.263Z,157.43
2018-06-28T14:06:02.091Z,205.33
2018-06-28T14:08:32.479Z,219.97
2018-06-28T14:11:01.664Z,216.63
2018-06-28T14:13:31.760Z,214.67
2018-06-28T14:16:02.285Z,213.00
2018-06-28T14:18:32.038Z,216.17
2018-06-28T14:21:01.917Z,214.77
2018-06-28T14:23:31.711Z,208.83
2018-06-28T14:26:01.613Z,206.00
2018-06-28T14:28:31.672Z,208.30
2018-06-28T14:31:01.486Z,210.97
2018-06-28T14:33:31.388Z,212.10
2018-06-28T14:36:01.236Z,212.57
2018-06-28T14:38:31.422Z,212.37
2018-06-28T14:41:01.742Z,207.27
2018-06-28T14:43:31.522Z,183.17
2018-06-28T14:46:02.390Z,166.87
2018-06-28T14:48:32.164Z,133.20
2018-06-28T14:51:02.375Z,98.77
2018-06-28T14:53:32.378Z,72.47
2018-06-28T14:56:01.822Z,42.63
2018-06-28T14:58:32.138Z,34.83
2018-06-28T15:01:00.749Z,39.17
2018-06-28T15:03:28.977Z,30.23
2018-06-28T15:06:00.749Z,27.70
2018-06-28T15:08:33.533Z,27.93
2018-06-28T15:11:05.918Z,27.20
2018-06-28T15:13:41.713Z,26.57
2018-06-28T15:16:18.045Z,31.13
2018-06-28T15:18:50.204Z,29.53
2018-06-28T15:21:22.870Z,33.20
2018-06-28T15:23:54.386Z,24.23
2018-06-28T15:26:28.255Z,24.43
2018-06-28T15:29:00.277Z,29.63
2018-06-28T15:31:28.888Z,34.03
2018-06-28T15:34:01.046Z,29.20
2018-06-28T15:36:32.003Z,43.77
2018-06-28T15:39:03.309Z,56.63
2018-06-28T15:41:37.474Z,41.00
2018-06-28T15:44:11.195Z,41.57
2018-06-28T15:46:48.273Z,37.63
2018-06-28T15:49:20.692Z,42.27
2018-06-28T15:51:57.460Z,24.83
2018-06-28T15:54:33.737Z,21.93
2018-06-28T15:57:05.711Z,24.07
2018-06-28T15:59:40.382Z,23.67
2018-06-28T16:02:09.073Z,24.50
2018-06-28T16:04:37.968Z,22.13
2018-06-28T16:07:06.585Z,23.23
2018-06-28T16:09:35.102Z,21.90
2018-06-28T16:12:03.689Z,19.73
2018-06-28T16:14:33.278Z,17.87
2018-06-28T16:17:02.924Z,21.73
2018-06-28T16:19:31.575Z,18.20
2018-06-28T16:22:00.140Z,15.27
2018-06-28T16:24:28.635Z,15.67
2018-06-28T16:26:57.176Z,11.23
2018-06-28T16:29:25.667Z,7.70
2018-06-28T16:31:54.244Z,6.60
2018-06-28T16:34:22.748Z,7.80
2018-06-28T16:36:51.262Z,9.13
2018-06-28T16:39:19.853Z,8.03
2018-06-28T16:41:48.329Z,7.60
2018-06-28T16:44:16.870Z,6.07
2018-06-28T16:46:45.373Z,5.87
2018-06-28T16:49:13.860Z,6.20
2018-06-28T16:51:43.973Z,5.60
2018-06-28T16:54:14.759Z,5.60
2018-06-28T16:56:45.829Z,7.03
2018-06-28T16:59:14.360Z,7.10
2018-06-28T17:01:42.857Z,6.03
2018-06-28T17:04:11.509Z,5.40
2018-06-28T17:06:40.049Z,5.20
2018-06-28T17:09:09.323Z,7.07
2018-06-28T17:11:37.930Z,9.37
2018-06-28T17:14:06.790Z,9.07
2018-06-28T17:16:35.413Z,9.13
2018-06-28T17:19:03.984Z,13.40
2018-06-28T17:21:32.529Z,22.77
2018-06-28T17:24:01.010Z,48.87
2018-06-28T17:26:29.548Z,52.60
2018-06-28T17:28:58.073Z,56.27
2018-06-28T17:31:26.631Z,66.77
2018-06-28T17:33:55.746Z,103.90
2018-06-28T17:36:24.253Z,129.20
2018-06-28T17:38:52.821Z,133.33
2018-06-28T17:41:21.364Z,125.83
2018-06-28T17:43:50.026Z,131.57
2018-06-28T17:46:18.548Z,150.93
2018-06-28T17:48:48.415Z,166.40
2018-06-28T17:51:17.056Z,174.53
2018-06-28T17:53:45.604Z,183.03
2018-06-28T17:56:14.091Z,183.03
2018-06-28T17:58:42.621Z,188.63
2018-06-28T18:01:11.172Z,180.20
2018-06-28T18:03:40.972Z,178.77
2018-06-28T18:06:09.477Z,173.00
2018-06-28T18:08:39.316Z,166.40
2018-06-28T18:11:15.487Z,160.63
2018-06-28T18:13:45.091Z,146.03
2018-06-28T18:16:14.583Z,133.77
2018-06-28T18:18:44.363Z,141.83
2018-06-28T18:21:14.077Z,135.47
2018-06-28T18:23:43.833Z,126.60
2018-06-28T18:26:12.381Z,117.33
2018-06-28T18:28:43.563Z,109.50
2018-06-28T18:31:15.119Z,102.20
2018-06-28T18:33:47.972Z,98.33
2018-06-28T18:36:24.381Z,101.60
2018-06-28T18:38:56.621Z,95.77
2018-06-28T18:41:29.301Z,96.67
2018-06-28T18:44:05.368Z,79.00
2018-06-28T18:46:36.821Z,59.27
2018-06-28T18:49:15.693Z,45.40
2018-06-28T18:51:48.785Z,35.90
2018-06-28T18:54:21.023Z,25.97
2018-06-28T18:56:52.189Z,28.90
2018-06-28T18:59:23.071Z,59.27
2018-06-28T19:01:54.199Z,32.63
2018-06-28T19:04:25.570Z,12.77
2018-06-28T19:06:56.403Z,11.40
2018-06-28T19:09:32.619Z,11.20
2018-06-28T19:12:04.679Z,11.77
2018-06-28T19:14:41.890Z,11.87
2018-06-28T19:17:10.479Z,11.87
2018-06-28T19:19:38.668Z,10.70
2018-06-28T19:22:12.581Z,10.70
2018-06-28T19:24:41.141Z,15.70
2018-06-28T19:27:09.683Z,11.27
2018-06-28T19:29:43.495Z,16.40
2018-06-28T19:32:17.312Z,15.50
2018-06-28T19:34:45.905Z,11.37
2018-06-28T19:37:19.669Z,13.10
2018-06-28T19:39:53.417Z,15.07
2018-06-28T19:42:27.204Z,19.50
2018-06-28T19:44:55.729Z,47.60
2018-06-28T19:47:24.330Z,76.20
2018-06-28T19:49:58.121Z,61.30
2018-06-28T19:53:30.456Z,33.33
2018-06-28T19:55:59.013Z,22.87
2018-06-28T19:58:27.599Z,18.70
2018-06-28T20:03:05.060Z,18.47
2018-06-28T20:05:33.908Z,20.90
2018-06-28T20:08:02.750Z,27.13
2018-06-28T20:10:31.337Z,54.40
2018-06-28T20:13:05.230Z,95.57
2018-06-28T20:15:51.132Z,98.40
2018-06-28T20:18:25.141Z,85.00
2018-06-28T20:20:54.176Z,82.80
2018-06-28T20:23:22.761Z,77.03
2018-06-28T20:25:51.713Z,74.13
2018-06-28T20:28:25.537Z,70.87
2018-06-28T20:30:59.530Z,78.20
2018-06-28T20:33:33.514Z,83.87
2018-06-28T20:36:02.194Z,79.30
2018-06-28T20:38:31.209Z,65.97
2018-06-28T20:40:59.995Z,61.17
2018-06-28T20:43:28.573Z,62.00
2018-06-28T20:45:57.074Z,78.10
2018-06-28T20:48:25.303Z,116.87
2018-06-28T20:50:54.580Z,106.60
2018-06-28T20:53:23.114Z,91.60
2018-06-28T20:55:51.624Z,107.20
2018-06-28T20:58:20.170Z,191.87
2018-06-28T21:00:49.273Z,183.43
2018-06-28T21:03:17.539Z,190.77
2018-06-28T21:05:46.085Z,160.67
2018-06-28T21:08:14.870Z,152.93
2018-06-28T21:10:43.395Z,101.80
2018-06-28T21:13:11.891Z,64.87
2018-06-28T21:15:41.784Z,54.57
2018-06-28T21:18:10.932Z,46.50
2018-06-28T21:20:39.942Z,39.73
2018-06-28T21:23:09.479Z,37.00
2018-06-28T21:25:38.064Z,63.30
2018-06-28T21:28:07.950Z,48.50
2018-06-28T21:30:36.945Z,46.13
2018-06-28T21:33:05.554Z,52.30
2018-06-28T21:35:34.072Z,45.97
2018-06-28T21:38:04.034Z,72.70
2018-06-28T21:40:32.534Z,108.17
2018-06-28T21:43:01.540Z,101.90
2018-06-28T21:45:30.327Z,96.63
2018-06-28T21:47:58.937Z,90.00
2018-06-28T21:50:27.472Z,81.80
2018-06-28T21:52:56.516Z,96.03
2018-06-28T21:55:25.596Z,122.67
2018-06-28T21:57:54.167Z,133.90
2018-06-28T22:00:34.988Z,134.77
2018-06-28T22:03:05.118Z,147.30
2018-06-28T22:05:34.507Z,175.00
2018-06-28T22:08:04.918Z,175.67
2018-06-28T22:10:33.699Z,178.50
2018-06-28T22:13:02.226Z,186.53
2018-06-28T22:15:32.312Z,205.83
2018-06-28T22:18:02.206Z,208.27
2018-06-28T22:20:32.119Z,196.93
2018-06-28T22:23:00.795Z,237.77
2018-06-28T22:25:30.660Z,255.80
2018-06-28T22:28:00.188Z,281.87
2018-06-28T22:30:28.936Z,337.70
2018-06-28T22:32:57.485Z,311.20
2018-06-28T22:35:26.039Z,315.33
2018-06-28T22:37:54.590Z,289.20
2018-06-28T22:40:23.608Z,305.90
2018-06-28T22:42:52.163Z,268.40
2018-06-28T22:45:20.981Z,247.43
2018-06-28T22:47:49.691Z,284.33
2018-06-28T22:50:18.947Z,237.50
2018-06-28T22:52:47.432Z,240.93
2018-06-28T22:55:15.667Z,208.23
2018-06-28T22:57:44.213Z,219.43
2018-06-28T23:00:15.005Z,210.37
2018-06-28T23:02:43.531Z,216.93
2018-06-28T23:05:12.138Z,214.17
2018-06-28T23:07:40.844Z,219.53
2018-06-28T23:10:09.411Z,226.90
2018-06-28T23:12:42.841Z,208.37
2018-06-28T23:15:11.394Z,216.83
2018-06-28T23:17:39.928Z,186.80
2018-06-28T23:20:08.464Z,181.43
2018-06-28T23:22:50.252Z,202.60
2018-06-28T23:25:18.963Z,169.80
2018-06-28T23:27:48.217Z,172.37
2018-06-28T23:30:17.092Z,182.73
2018-06-28T23:32:45.648Z,164.23
2018-06-28T23:35:14.280Z,174.33
2018-06-28T23:37:42.787Z,189.47
2018-06-28T23:40:11.352Z,157.17
2018-06-28T23:42:40.314Z,159.03
2018-06-28T23:45:09.576Z,145.13
2018-06-28T23:47:38.114Z,154.27
2018-06-28T23:50:07.929Z,125.10
2018-06-28T23:52:36.469Z,156.33
2018-06-28T23:55:05.621Z,152.00
2018-06-28T23:57:34.168Z,149.33
